TimeAKDT,TemperatureF,Dew PointF,Humidity,Sea Level PressureIn,VisibilityMPH,Wind Direction,Wind SpeedMPH,Gust SpeedMPH,PrecipitationIn,Events,Conditions,WindDirDegrees,DateUTC
12:53 AM,54.0,50.0,86,29.41,4.0,SSE,21.9,34.5,0.09,Rain,Light Rain,150,2013-10-28 08:53:00
1:53 AM,53.1,50.0,89,29.40,6.0,SSE,17.3,28.8,0.03,Rain,Light Rain,150,2013-10-28 09:53:00
2:53 AM,52.0,48.0,86,29.41,10.0,SSE,5.8,-,0.02,Rain,Light Rain,150,2013-10-28 10:53:00
3:39 AM,51.8,48.2,88,29.39,10.0,South,5.8,-,0.01,Rain,Light Rain,170,2013-10-28 11:39:00
3:53 AM,51.1,48.9,92,29.39,10.0,SSE,6.9,-,0.01,Rain,Light Rain,160,2013-10-28 11:53:00
4:53 AM,50.0,46.0,86,29.38,10.0,South,3.5,-,0.00,,Overcast,190,2013-10-28 12:53:00
5:53 AM,48.9,28.9,46,29.37,7.0,NE,5.8,-,0.01,Rain,Light Rain,40,2013-10-28 13:53:00
6:53 AM,48.9,46.0,90,29.36,6.0,Calm,Calm,-,0.04,Rain,Light Rain,0,2013-10-28 14:53:00
7:53 AM,48.0,44.1,86,29.35,9.0,Calm,Calm,-,0.03,Rain,Light Rain,0,2013-10-28 15:53:00
8:53 AM,48.0,44.1,86,29.35,10.0,South,6.9,-,0.01,,Overcast,170,2013-10-28 16:53:00
9:53 AM,48.9,44.6,85,29.35,10.0,Calm,Calm,-,N/A,,Mostly Cloudy,0,2013-10-28 17:53:00
10:53 AM,48.9,45.0,86,29.36,10.0,SW,5.8,-,N/A,,Mostly Cloudy,230,2013-10-28 18:53:00
11:53 AM,50.0,45.0,83,29.36,10.0,SSW,9.2,-,N/A,,Scattered Clouds,210,2013-10-28 19:53:00
12:53 PM,50.0,45.0,83,29.39,10.0,South,15.0,21.9,N/A,,Scattered Clouds,190,2013-10-28 20:53:00
1:53 PM,51.1,39.0,63,29.41,10.0,South,15.0,23.0,N/A,,Scattered Clouds,190,2013-10-28 21:53:00
2:53 PM,51.1,43.0,74,29.42,10.0,SSW,12.7,-,N/A,,Scattered Clouds,200,2013-10-28 22:53:00
3:53 PM,51.1,37.9,61,29.44,10.0,South,13.8,-,N/A,,Scattered Clouds,190,2013-10-28 23:53:00
4:53 PM,50.0,36.0,59,29.46,10.0,SSW,11.5,-,N/A,,Mostly Cloudy,200,2013-10-29 00:53:00
5:53 PM,48.0,35.1,61,29.47,10.0,SSW,12.7,-,N/A,,Mostly Cloudy,210,2013-10-29 01:53:00
6:53 PM,45.0,34.0,65,29.49,10.0,SW,3.5,-,N/A,,Scattered Clouds,220,2013-10-29 02:53:00
7:53 PM,43.0,34.0,71,29.52,10.0,West,5.8,-,N/A,,Clear,280,2013-10-29 03:53:00
8:53 PM,37.9,34.0,86,29.54,10.0,West,6.9,-,N/A,,Clear,280,2013-10-29 04:53:00
9:53 PM,37.0,33.1,86,29.55,10.0,West,5.8,-,N/A,,Clear,270,2013-10-29 05:53:00
10:53 PM,35.1,32.0,89,29.57,10.0,West,5.8,-,N/A,,Clear,280,2013-10-29 06:53:00
11:53 PM,36.0,33.1,89,29.58,10.0,WNW,5.8,-,N/A,,Clear,290,2013-10-29 07:53:00